sensor_id;sensor_type;location;lat;lon;timestamp;P1;durP1;ratioP1;P2;durP2;ratioP2
6378;SDS011;3222;48.858;10.128;2023-08-17T00:02:18;4.20;;;2.85;;
6378;SDS011;3222;48.858;10.128;2023-08-17T00:04:43;3.15;;;2.70;;
6378;SDS011;3222;48.858;10.128;2023-08-17T00:07:09;4.72;;;2.85;;
6378;SDS011;3222;48.858;10.128;2023-08-17T00:09:35;4.47;;;3.10;;
6378;SDS011;3222;48.858;10.128;2023-08-17T00:12:01;7.53;;;3.33;;
6378;SDS011;3222;48.858;10.128;2023-08-17T00:14:27;3.15;;;2.70;;
6378;SDS011;3222;48.858;10.128;2023-08-17T00:16:52;3.30;;;3.00;;
6378;SDS011;3222;48.858;10.128;2023-08-17T00:19:18;3.45;;;3.00;;
6378;SDS011;3222;48.858;10.128;2023-08-17T00:21:44;4.35;;;2.85;;
6378;SDS011;3222;48.858;10.128;2023-08-17T00:24:10;4.78;;;2.75;;
6378;SDS011;3222;48.858;10.128;2023-08-17T00:26:37;3.28;;;2.90;;
6378;SDS011;3222;48.858;10.128;2023-08-17T00:29:03;6.53;;;2.80;;
6378;SDS011;3222;48.858;10.128;2023-08-17T00:31:28;2.72;;;2.50;;
6378;SDS011;3222;48.858;10.128;2023-08-17T00:33:54;3.45;;;2.70;;
6378;SDS011;3222;48.858;10.128;2023-08-17T00:36:20;3.08;;;2.80;;
6378;SDS011;3222;48.858;10.128;2023-08-17T00:38:46;6.78;;;2.92;;
6378;SDS011;3222;48.858;10.128;2023-08-17T00:41:11;6.18;;;2.90;;
6378;SDS011;3222;48.858;10.128;2023-08-17T00:43:37;3.75;;;2.65;;
6378;SDS011;3222;48.858;10.128;2023-08-17T00:46:03;4.13;;;3.30;;
6378;SDS011;3222;48.858;10.128;2023-08-17T00:48:29;5.40;;;2.70;;
6378;SDS011;3222;48.858;10.128;2023-08-17T00:50:56;4.38;;;2.63;;
6378;SDS011;3222;48.858;10.128;2023-08-17T00:53:25;3.45;;;2.78;;
6378;SDS011;3222;48.858;10.128;2023-08-17T00:55:52;3.95;;;2.92;;
6378;SDS011;3222;48.858;10.128;2023-08-17T00:58:19;2.67;;;2.47;;
6378;SDS011;3222;48.858;10.128;2023-08-17T01:00:46;4.53;;;2.30;;
6378;SDS011;3222;48.858;10.128;2023-08-17T01:03:11;4.40;;;2.80;;
6378;SDS011;3222;48.858;10.128;2023-08-17T01:05:37;3.90;;;2.50;;
6378;SDS011;3222;48.858;10.128;2023-08-17T01:08:03;4.90;;;2.40;;
6378;SDS011;3222;48.858;10.128;2023-08-17T01:10:41;4.15;;;2.40;;
6378;SDS011;3222;48.858;10.128;2023-08-17T01:13:25;8.85;;;3.03;;
6378;SDS011;3222;48.858;10.128;2023-08-17T01:16:05;4.72;;;2.53;;
6378;SDS011;3222;48.858;10.128;2023-08-17T01:18:35;3.25;;;2.78;;
6378;SDS011;3222;48.858;10.128;2023-08-17T01:21:05;4.85;;;2.47;;
6378;SDS011;3222;48.858;10.128;2023-08-17T01:23:33;5.60;;;2.50;;
6378;SDS011;3222;48.858;10.128;2023-08-17T01:25:59;2.67;;;2.40;;
6378;SDS011;3222;48.858;10.128;2023-08-17T01:28:24;5.18;;;3.20;;
6378;SDS011;3222;48.858;10.128;2023-08-17T01:31:05;2.97;;;2.78;;
6378;SDS011;3222;48.858;10.128;2023-08-17T01:33:50;3.88;;;2.85;;
6378;SDS011;3222;48.858;10.128;2023-08-17T01:36:25;3.70;;;2.80;;
6378;SDS011;3222;48.858;10.128;2023-08-17T01:38:55;3.10;;;2.70;;
6378;SDS011;3222;48.858;10.128;2023-08-17T01:41:23;3.92;;;3.00;;
6378;SDS011;3222;48.858;10.128;2023-08-17T01:43:49;4.78;;;3.30;;
6378;SDS011;3222;48.858;10.128;2023-08-17T01:46:16;4.70;;;2.83;;
6378;SDS011;3222;48.858;10.128;2023-08-17T01:48:43;6.15;;;3.13;;
6378;SDS011;3222;48.858;10.128;2023-08-17T01:51:19;3.67;;;2.70;;
6378;SDS011;3222;48.858;10.128;2023-08-17T01:53:45;4.65;;;3.05;;
6378;SDS011;3222;48.858;10.128;2023-08-17T01:56:11;3.10;;;2.75;;
6378;SDS011;3222;48.858;10.128;2023-08-17T01:58:37;5.97;;;2.97;;
6378;SDS011;3222;48.858;10.128;2023-08-17T02:01:04;5.63;;;3.25;;
6378;SDS011;3222;48.858;10.128;2023-08-17T02:03:29;6.30;;;3.80;;
6378;SDS011;3222;48.858;10.128;2023-08-17T02:05:55;4.47;;;3.30;;
6378;SDS011;3222;48.858;10.128;2023-08-17T02:08:22;3.40;;;3.13;;
6378;SDS011;3222;48.858;10.128;2023-08-17T02:10:47;5.43;;;3.17;;
6378;SDS011;3222;48.858;10.128;2023-08-17T02:13:17;3.55;;;3.22;;
6378;SDS011;3222;48.858;10.128;2023-08-17T02:15:43;4.60;;;3.25;;
6378;SDS011;3222;48.858;10.128;2023-08-17T02:18:09;3.85;;;3.45;;
6378;SDS011;3222;48.858;10.128;2023-08-17T02:20:35;3.40;;;3.10;;
6378;SDS011;3222;48.858;10.128;2023-08-17T02:23:01;5.85;;;3.38;;
6378;SDS011;3222;48.858;10.128;2023-08-17T02:25:26;3.92;;;3.50;;
6378;SDS011;3222;48.858;10.128;2023-08-17T02:27:59;3.40;;;3.17;;
6378;SDS011;3222;48.858;10.128;2023-08-17T02:30:25;4.55;;;3.50;;
6378;SDS011;3222;48.858;10.128;2023-08-17T02:32:51;6.10;;;4.00;;
6378;SDS011;3222;48.858;10.128;2023-08-17T02:35:16;5.18;;;3.63;;
6378;SDS011;3222;48.858;10.128;2023-08-17T02:37:42;5.30;;;4.10;;
6378;SDS011;3222;48.858;10.128;2023-08-17T02:40:08;5.57;;;4.25;;
6378;SDS011;3222;48.858;10.128;2023-08-17T02:42:34;4.10;;;3.80;;
6378;SDS011;3222;48.858;10.128;2023-08-17T02:45:00;3.58;;;3.25;;
6378;SDS011;3222;48.858;10.128;2023-08-17T02:47:25;4.75;;;3.63;;
6378;SDS011;3222;48.858;10.128;2023-08-17T02:49:52;4.03;;;3.60;;
6378;SDS011;3222;48.858;10.128;2023-08-17T02:52:17;6.05;;;3.63;;
6378;SDS011;3222;48.858;10.128;2023-08-17T02:54:43;3.30;;;3.00;;
6378;SDS011;3222;48.858;10.128;2023-08-17T02:57:09;3.85;;;3.00;;
6378;SDS011;3222;48.858;10.128;2023-08-17T02:59:34;5.28;;;3.17;;
6378;SDS011;3222;48.858;10.128;2023-08-17T03:02:00;3.58;;;3.25;;
6378;SDS011;3222;48.858;10.128;2023-08-17T03:04:26;3.28;;;2.90;;
6378;SDS011;3222;48.858;10.128;2023-08-17T03:06:51;8.00;;;3.35;;
6378;SDS011;3222;48.858;10.128;2023-08-17T03:09:17;3.15;;;2.92;;
6378;SDS011;3222;48.858;10.128;2023-08-17T03:11:43;3.58;;;3.00;;
6378;SDS011;3222;48.858;10.128;2023-08-17T03:14:08;8.52;;;3.22;;
6378;SDS011;3222;48.858;10.128;2023-08-17T03:16:34;4.80;;;3.40;;
6378;SDS011;3222;48.858;10.128;2023-08-17T03:18:59;3.28;;;2.95;;
6378;SDS011;3222;48.858;10.128;2023-08-17T03:21:25;4.13;;;2.85;;
6378;SDS011;3222;48.858;10.128;2023-08-17T03:23:52;4.50;;;3.05;;
6378;SDS011;3222;48.858;10.128;2023-08-17T03:26:17;8.50;;;3.20;;
6378;SDS011;3222;48.858;10.128;2023-08-17T03:28:44;4.65;;;3.20;;
6378;SDS011;3222;48.858;10.128;2023-08-17T03:31:10;3.30;;;3.00;;
6378;SDS011;3222;48.858;10.128;2023-08-17T03:33:36;3.47;;;3.00;;
6378;SDS011;3222;48.858;10.128;2023-08-17T03:36:02;6.05;;;3.45;;
6378;SDS011;3222;48.858;10.128;2023-08-17T03:38:28;5.50;;;4.03;;
6378;SDS011;3222;48.858;10.128;2023-08-17T03:40:55;5.72;;;3.15;;
6378;SDS011;3222;48.858;10.128;2023-08-17T03:43:22;3.95;;;2.88;;
6378;SDS011;3222;48.858;10.128;2023-08-17T03:45:48;4.03;;;3.28;;
6378;SDS011;3222;48.858;10.128;2023-08-17T03:48:13;4.47;;;3.20;;
6378;SDS011;3222;48.858;10.128;2023-08-17T03:50:39;3.25;;;3.05;;
6378;SDS011;3222;48.858;10.128;2023-08-17T03:53:04;3.47;;;3.17;;
6378;SDS011;3222;48.858;10.128;2023-08-17T03:55:30;4.05;;;3.45;;
6378;SDS011;3222;48.858;10.128;2023-08-17T03:57:56;4.45;;;3.40;;
6378;SDS011;3222;48.858;10.128;2023-08-17T04:00:22;4.60;;;3.42;;
6378;SDS011;3222;48.858;10.128;2023-08-17T04:02:53;3.80;;;3.50;;
6378;SDS011;3222;48.858;10.128;2023-08-17T04:05:19;5.70;;;3.67;;
6378;SDS011;3222;48.858;10.128;2023-08-17T04:07:46;5.30;;;3.20;;
6378;SDS011;3222;48.858;10.128;2023-08-17T04:10:12;4.30;;;3.90;;
6378;SDS011;3222;48.858;10.128;2023-08-17T04:12:38;3.80;;;3.50;;
6378;SDS011;3222;48.858;10.128;2023-08-17T04:15:04;5.57;;;3.78;;
6378;SDS011;3222;48.858;10.128;2023-08-17T04:17:30;4.93;;;3.58;;
6378;SDS011;3222;48.858;10.128;2023-08-17T04:19:56;6.15;;;4.03;;
6378;SDS011;3222;48.858;10.128;2023-08-17T04:22:23;5.70;;;3.55;;
6378;SDS011;3222;48.858;10.128;2023-08-17T04:24:49;5.15;;;3.50;;
6378;SDS011;3222;48.858;10.128;2023-08-17T04:27:15;5.65;;;3.50;;
6378;SDS011;3222;48.858;10.128;2023-08-17T04:29:41;4.68;;;3.53;;
6378;SDS011;3222;48.858;10.128;2023-08-17T04:32:06;6.18;;;3.42;;
6378;SDS011;3222;48.858;10.128;2023-08-17T04:34:32;6.25;;;3.53;;
6378;SDS011;3222;48.858;10.128;2023-08-17T04:36:58;4.65;;;3.55;;
6378;SDS011;3222;48.858;10.128;2023-08-17T04:39:24;4.20;;;3.30;;
6378;SDS011;3222;48.858;10.128;2023-08-17T04:41:50;4.10;;;3.75;;
6378;SDS011;3222;48.858;10.128;2023-08-17T04:44:22;6.35;;;3.42;;
6378;SDS011;3222;48.858;10.128;2023-08-17T04:46:48;3.83;;;3.33;;
6378;SDS011;3222;48.858;10.128;2023-08-17T04:49:14;3.90;;;3.60;;
6378;SDS011;3222;48.858;10.128;2023-08-17T04:51:40;4.30;;;3.67;;
6378;SDS011;3222;48.858;10.128;2023-08-17T04:54:06;3.70;;;3.40;;
6378;SDS011;3222;48.858;10.128;2023-08-17T04:56:32;6.03;;;3.22;;
6378;SDS011;3222;48.858;10.128;2023-08-17T04:58:58;8.73;;;3.60;;
6378;SDS011;3222;48.858;10.128;2023-08-17T05:01:24;5.82;;;3.60;;
6378;SDS011;3222;48.858;10.128;2023-08-17T05:03:49;4.20;;;3.40;;
6378;SDS011;3222;48.858;10.128;2023-08-17T05:06:15;5.22;;;3.67;;
6378;SDS011;3222;48.858;10.128;2023-08-17T05:08:42;5.35;;;3.50;;
6378;SDS011;3222;48.858;10.128;2023-08-17T05:11:07;4.28;;;3.58;;
6378;SDS011;3222;48.858;10.128;2023-08-17T05:13:33;4.22;;;3.50;;
6378;SDS011;3222;48.858;10.128;2023-08-17T05:16:02;3.58;;;3.28;;
6378;SDS011;3222;48.858;10.128;2023-08-17T05:18:28;6.82;;;3.47;;
6378;SDS011;3222;48.858;10.128;2023-08-17T05:20:54;4.97;;;3.47;;
6378;SDS011;3222;48.858;10.128;2023-08-17T05:23:20;5.70;;;3.25;;
6378;SDS011;3222;48.858;10.128;2023-08-17T05:25:46;5.68;;;3.30;;
6378;SDS011;3222;48.858;10.128;2023-08-17T05:28:13;3.75;;;3.38;;
6378;SDS011;3222;48.858;10.128;2023-08-17T05:30:39;5.78;;;3.42;;
6378;SDS011;3222;48.858;10.128;2023-08-17T05:33:05;4.63;;;3.55;;
6378;SDS011;3222;48.858;10.128;2023-08-17T05:35:31;7.45;;;3.42;;
6378;SDS011;3222;48.858;10.128;2023-08-17T05:37:57;4.82;;;3.70;;
6378;SDS011;3222;48.858;10.128;2023-08-17T05:40:23;5.38;;;4.13;;
6378;SDS011;3222;48.858;10.128;2023-08-17T05:42:48;7.60;;;3.83;;
6378;SDS011;3222;48.858;10.128;2023-08-17T05:45:14;3.85;;;3.55;;
6378;SDS011;3222;48.858;10.128;2023-08-17T05:47:40;4.82;;;4.10;;
6378;SDS011;3222;48.858;10.128;2023-08-17T05:50:06;4.93;;;3.70;;
6378;SDS011;3222;48.858;10.128;2023-08-17T05:52:32;4.78;;;4.25;;
6378;SDS011;3222;48.858;10.128;2023-08-17T05:54:57;4.95;;;3.80;;
6378;SDS011;3222;48.858;10.128;2023-08-17T05:57:23;6.90;;;3.97;;
6378;SDS011;3222;48.858;10.128;2023-08-17T05:59:49;4.90;;;4.03;;
6378;SDS011;3222;48.858;10.128;2023-08-17T06:02:14;4.68;;;4.10;;
6378;SDS011;3222;48.858;10.128;2023-08-17T06:04:40;6.47;;;4.00;;
6378;SDS011;3222;48.858;10.128;2023-08-17T06:07:06;6.88;;;4.35;;
6378;SDS011;3222;48.858;10.128;2023-08-17T06:09:31;4.68;;;4.30;;
6378;SDS011;3222;48.858;10.128;2023-08-17T06:11:57;13.30;;;4.72;;
6378;SDS011;3222;48.858;10.128;2023-08-17T06:14:23;4.60;;;4.20;;
6378;SDS011;3222;48.858;10.128;2023-08-17T06:16:48;6.38;;;4.18;;
6378;SDS011;3222;48.858;10.128;2023-08-17T06:19:14;4.57;;;3.85;;
6378;SDS011;3222;48.858;10.128;2023-08-17T06:21:39;4.43;;;4.00;;
6378;SDS011;3222;48.858;10.128;2023-08-17T06:24:05;4.25;;;3.70;;
6378;SDS011;3222;48.858;10.128;2023-08-17T06:26:31;4.50;;;4.10;;
6378;SDS011;3222;48.858;10.128;2023-08-17T06:28:57;5.45;;;4.30;;
6378;SDS011;3222;48.858;10.128;2023-08-17T06:31:22;5.07;;;4.05;;
6378;SDS011;3222;48.858;10.128;2023-08-17T06:33:52;5.55;;;3.85;;
6378;SDS011;3222;48.858;10.128;2023-08-17T06:36:19;5.80;;;3.78;;
6378;SDS011;3222;48.858;10.128;2023-08-17T06:38:45;4.05;;;3.70;;
6378;SDS011;3222;48.858;10.128;2023-08-17T06:41:10;4.43;;;3.75;;
6378;SDS011;3222;48.858;10.128;2023-08-17T06:43:36;5.80;;;3.80;;
6378;SDS011;3222;48.858;10.128;2023-08-17T06:46:02;4.07;;;3.70;;
6378;SDS011;3222;48.858;10.128;2023-08-17T06:48:28;3.83;;;3.55;;
6378;SDS011;3222;48.858;10.128;2023-08-17T06:50:53;5.07;;;3.58;;
6378;SDS011;3222;48.858;10.128;2023-08-17T06:53:19;4.60;;;3.42;;
6378;SDS011;3222;48.858;10.128;2023-08-17T06:55:45;4.25;;;3.80;;
6378;SDS011;3222;48.858;10.128;2023-08-17T06:58:11;6.95;;;4.25;;
6378;SDS011;3222;48.858;10.128;2023-08-17T07:00:36;6.72;;;3.75;;
6378;SDS011;3222;48.858;10.128;2023-08-17T07:03:05;4.03;;;3.70;;
6378;SDS011;3222;48.858;10.128;2023-08-17T07:05:31;5.93;;;3.90;;
6378;SDS011;3222;48.858;10.128;2023-08-17T07:07:57;4.20;;;3.80;;
6378;SDS011;3222;48.858;10.128;2023-08-17T07:10:24;4.53;;;4.10;;
6378;SDS011;3222;48.858;10.128;2023-08-17T07:12:50;4.50;;;4.03;;
6378;SDS011;3222;48.858;10.128;2023-08-17T07:15:16;4.70;;;4.22;;
6378;SDS011;3222;48.858;10.128;2023-08-17T07:17:42;4.30;;;3.90;;
6378;SDS011;3222;48.858;10.128;2023-08-17T07:20:07;4.97;;;3.78;;
6378;SDS011;3222;48.858;10.128;2023-08-17T07:22:34;4.63;;;3.95;;
6378;SDS011;3222;48.858;10.128;2023-08-17T07:25:00;4.55;;;4.25;;
6378;SDS011;3222;48.858;10.128;2023-08-17T07:27:26;4.40;;;4.10;;
6378;SDS011;3222;48.858;10.128;2023-08-17T07:29:51;4.70;;;4.25;;
6378;SDS011;3222;48.858;10.128;2023-08-17T07:32:17;5.97;;;4.00;;
6378;SDS011;3222;48.858;10.128;2023-08-17T07:34:44;9.82;;;4.80;;
6378;SDS011;3222;48.858;10.128;2023-08-17T07:37:09;5.18;;;4.68;;
6378;SDS011;3222;48.858;10.128;2023-08-17T07:39:35;5.68;;;5.07;;
6378;SDS011;3222;48.858;10.128;2023-08-17T07:42:01;7.32;;;5.05;;
6378;SDS011;3222;48.858;10.128;2023-08-17T07:44:26;5.20;;;4.70;;
6378;SDS011;3222;48.858;10.128;2023-08-17T07:46:53;6.22;;;5.20;;
6378;SDS011;3222;48.858;10.128;2023-08-17T07:49:19;4.85;;;4.40;;
6378;SDS011;3222;48.858;10.128;2023-08-17T07:51:45;5.78;;;4.60;;
6378;SDS011;3222;48.858;10.128;2023-08-17T07:54:10;6.88;;;4.97;;
6378;SDS011;3222;48.858;10.128;2023-08-17T07:56:36;6.22;;;5.03;;
6378;SDS011;3222;48.858;10.128;2023-08-17T07:59:02;6.50;;;4.35;;
6378;SDS011;3222;48.858;10.128;2023-08-17T08:01:28;7.50;;;5.18;;
6378;SDS011;3222;48.858;10.128;2023-08-17T08:03:53;7.57;;;5.43;;
6378;SDS011;3222;48.858;10.128;2023-08-17T08:06:19;6.15;;;5.57;;
6378;SDS011;3222;48.858;10.128;2023-08-17T08:08:45;5.80;;;5.30;;
6378;SDS011;3222;48.858;10.128;2023-08-17T08:11:11;9.75;;;5.70;;
6378;SDS011;3222;48.858;10.128;2023-08-17T08:13:37;7.05;;;5.38;;
6378;SDS011;3222;48.858;10.128;2023-08-17T08:16:02;9.00;;;5.22;;
6378;SDS011;3222;48.858;10.128;2023-08-17T08:18:28;7.35;;;5.63;;
6378;SDS011;3222;48.858;10.128;2023-08-17T08:20:54;6.28;;;5.68;;
6378;SDS011;3222;48.858;10.128;2023-08-17T08:23:19;6.97;;;5.20;;
6378;SDS011;3222;48.858;10.128;2023-08-17T08:25:45;6.68;;;6.03;;
6378;SDS011;3222;48.858;10.128;2023-08-17T08:28:11;5.82;;;5.25;;
6378;SDS011;3222;48.858;10.128;2023-08-17T08:30:36;6.57;;;5.30;;
6378;SDS011;3222;48.858;10.128;2023-08-17T08:33:02;5.70;;;5.10;;
6378;SDS011;3222;48.858;10.128;2023-08-17T08:35:28;7.75;;;5.68;;
6378;SDS011;3222;48.858;10.128;2023-08-17T08:37:54;6.63;;;5.93;;
6378;SDS011;3222;48.858;10.128;2023-08-17T08:40:32;6.97;;;5.68;;
6378;SDS011;3222;48.858;10.128;2023-08-17T08:43:02;5.93;;;5.35;;
6378;SDS011;3222;48.858;10.128;2023-08-17T08:45:27;7.85;;;6.45;;
6378;SDS011;3222;48.858;10.128;2023-08-17T08:47:55;7.63;;;6.45;;
6378;SDS011;3222;48.858;10.128;2023-08-17T08:50:22;6.95;;;6.25;;
6378;SDS011;3222;48.858;10.128;2023-08-17T08:52:59;7.15;;;6.45;;
6378;SDS011;3222;48.858;10.128;2023-08-17T08:55:29;6.55;;;5.95;;
6378;SDS011;3222;48.858;10.128;2023-08-17T08:57:58;10.45;;;5.90;;
6378;SDS011;3222;48.858;10.128;2023-08-17T09:00:24;6.35;;;5.72;;
6378;SDS011;3222;48.858;10.128;2023-08-17T09:02:51;6.82;;;5.93;;
6378;SDS011;3222;48.858;10.128;2023-08-17T09:05:17;6.68;;;6.18;;
6378;SDS011;3222;48.858;10.128;2023-08-17T09:07:44;6.13;;;5.60;;
6378;SDS011;3222;48.858;10.128;2023-08-17T09:10:13;7.43;;;6.15;;
6378;SDS011;3222;48.858;10.128;2023-08-17T09:12:41;7.53;;;5.63;;
6378;SDS011;3222;48.858;10.128;2023-08-17T09:15:07;9.38;;;5.28;;
6378;SDS011;3222;48.858;10.128;2023-08-17T09:17:33;6.15;;;5.55;;
6378;SDS011;3222;48.858;10.128;2023-08-17T09:20:01;5.95;;;5.40;;
6378;SDS011;3222;48.858;10.128;2023-08-17T09:22:41;7.90;;;5.57;;
6378;SDS011;3222;48.858;10.128;2023-08-17T09:25:11;7.70;;;5.72;;
6378;SDS011;3222;48.858;10.128;2023-08-17T09:27:46;6.20;;;5.40;;
6378;SDS011;3222;48.858;10.128;2023-08-17T09:30:12;6.47;;;5.10;;
6378;SDS011;3222;48.858;10.128;2023-08-17T09:32:38;6.13;;;5.40;;
6378;SDS011;3222;48.858;10.128;2023-08-17T09:35:04;5.53;;;5.03;;
6378;SDS011;3222;48.858;10.128;2023-08-17T09:37:31;6.13;;;5.53;;
6378;SDS011;3222;48.858;10.128;2023-08-17T09:39:57;6.75;;;6.07;;
6378;SDS011;3222;48.858;10.128;2023-08-17T09:42:24;7.32;;;5.63;;
6378;SDS011;3222;48.858;10.128;2023-08-17T09:44:51;5.97;;;5.38;;
6378;SDS011;3222;48.858;10.128;2023-08-17T09:47:17;7.82;;;5.07;;
6378;SDS011;3222;48.858;10.128;2023-08-17T09:49:54;5.88;;;5.38;;
6378;SDS011;3222;48.858;10.128;2023-08-17T09:52:20;5.97;;;5.47;;
6378;SDS011;3222;48.858;10.128;2023-08-17T09:54:47;6.25;;;5.70;;
6378;SDS011;3222;48.858;10.128;2023-08-17T09:57:12;6.57;;;5.97;;
6378;SDS011;3222;48.858;10.128;2023-08-17T09:59:39;6.60;;;5.88;;
6378;SDS011;3222;48.858;10.128;2023-08-17T10:02:09;7.53;;;5.80;;
6378;SDS011;3222;48.858;10.128;2023-08-17T10:04:43;6.90;;;6.30;;
6378;SDS011;3222;48.858;10.128;2023-08-17T10:07:11;7.15;;;6.45;;
6378;SDS011;3222;48.858;10.128;2023-08-17T10:09:39;7.72;;;5.78;;
6378;SDS011;3222;48.858;10.128;2023-08-17T10:12:11;6.47;;;5.95;;
6378;SDS011;3222;48.858;10.128;2023-08-17T10:14:42;7.45;;;5.90;;
6378;SDS011;3222;48.858;10.128;2023-08-17T10:17:22;10.40;;;6.50;;
6378;SDS011;3222;48.858;10.128;2023-08-17T10:19:52;6.93;;;6.22;;
6378;SDS011;3222;48.858;10.128;2023-08-17T10:25:00;6.40;;;5.80;;
6378;SDS011;3222;48.858;10.128;2023-08-17T10:27:26;6.45;;;5.93;;
6378;SDS011;3222;48.858;10.128;2023-08-17T10:29:52;6.43;;;5.78;;
6378;SDS011;3222;48.858;10.128;2023-08-17T10:32:20;6.40;;;5.75;;
6378;SDS011;3222;48.858;10.128;2023-08-17T10:34:47;6.70;;;6.10;;
6378;SDS011;3222;48.858;10.128;2023-08-17T10:37:14;6.53;;;5.93;;
6378;SDS011;3222;48.858;10.128;2023-08-17T10:39:46;6.72;;;6.13;;
6378;SDS011;3222;48.858;10.128;2023-08-17T10:42:13;6.40;;;5.90;;
6378;SDS011;3222;48.858;10.128;2023-08-17T10:44:48;7.80;;;6.32;;
6378;SDS011;3222;48.858;10.128;2023-08-17T10:49:50;7.43;;;5.68;;
6378;SDS011;3222;48.858;10.128;2023-08-17T10:52:27;6.85;;;5.88;;
6378;SDS011;3222;48.858;10.128;2023-08-17T10:55:06;6.55;;;6.05;;
6378;SDS011;3222;48.858;10.128;2023-08-17T10:57:35;6.50;;;5.50;;
6378;SDS011;3222;48.858;10.128;2023-08-17T11:03:01;7.07;;;6.07;;
6378;SDS011;3222;48.858;10.128;2023-08-17T11:05:42;6.47;;;5.82;;
6378;SDS011;3222;48.858;10.128;2023-08-17T11:13:38;8.10;;;5.78;;
6378;SDS011;3222;48.858;10.128;2023-08-17T11:16:09;6.53;;;5.93;;
6378;SDS011;3222;48.858;10.128;2023-08-17T11:18:36;6.60;;;6.00;;
6378;SDS011;3222;48.858;10.128;2023-08-17T11:21:03;6.53;;;6.03;;
6378;SDS011;3222;48.858;10.128;2023-08-17T11:23:31;7.45;;;5.82;;
6378;SDS011;3222;48.858;10.128;2023-08-17T11:25:58;6.30;;;5.57;;
6378;SDS011;3222;48.858;10.128;2023-08-17T11:28:25;6.70;;;6.10;;
6378;SDS011;3222;48.858;10.128;2023-08-17T11:30:58;6.85;;;6.03;;
6378;SDS011;3222;48.858;10.128;2023-08-17T11:33:27;6.43;;;5.85;;
6378;SDS011;3222;48.858;10.128;2023-08-17T11:35:55;6.20;;;5.60;;
6378;SDS011;3222;48.858;10.128;2023-08-17T11:38:21;6.35;;;5.80;;
6378;SDS011;3222;48.858;10.128;2023-08-17T11:40:48;7.38;;;6.28;;
6378;SDS011;3222;48.858;10.128;2023-08-17T11:43:14;6.70;;;6.20;;
6378;SDS011;3222;48.858;10.128;2023-08-17T11:45:40;6.78;;;6.07;;
6378;SDS011;3222;48.858;10.128;2023-08-17T11:48:06;6.28;;;5.72;;
6378;SDS011;3222;48.858;10.128;2023-08-17T11:50:32;6.30;;;5.80;;
6378;SDS011;3222;48.858;10.128;2023-08-17T11:53:01;6.47;;;5.80;;
6378;SDS011;3222;48.858;10.128;2023-08-17T11:55:29;6.05;;;5.50;;
6378;SDS011;3222;48.858;10.128;2023-08-17T11:57:55;6.75;;;5.70;;
6378;SDS011;3222;48.858;10.128;2023-08-17T12:00:21;7.78;;;5.80;;
6378;SDS011;3222;48.858;10.128;2023-08-17T12:02:48;6.47;;;5.88;;
6378;SDS011;3222;48.858;10.128;2023-08-17T12:05:22;7.18;;;6.47;;
6378;SDS011;3222;48.858;10.128;2023-08-17T12:07:50;6.22;;;5.50;;
6378;SDS011;3222;48.858;10.128;2023-08-17T12:10:18;6.13;;;5.53;;
6378;SDS011;3222;48.858;10.128;2023-08-17T12:12:46;6.20;;;5.63;;
6378;SDS011;3222;48.858;10.128;2023-08-17T12:15:13;8.20;;;5.25;;
6378;SDS011;3222;48.858;10.128;2023-08-17T12:17:45;5.57;;;4.85;;
6378;SDS011;3222;48.858;10.128;2023-08-17T12:20:18;4.90;;;4.60;;
6378;SDS011;3222;48.858;10.128;2023-08-17T12:22:46;4.85;;;4.55;;
6378;SDS011;3222;48.858;10.128;2023-08-17T12:25:13;4.90;;;4.55;;
6378;SDS011;3222;48.858;10.128;2023-08-17T12:27:39;6.63;;;4.53;;
6378;SDS011;3222;48.858;10.128;2023-08-17T12:30:05;7.03;;;6.00;;
6378;SDS011;3222;48.858;10.128;2023-08-17T12:32:38;6.60;;;6.10;;
6378;SDS011;3222;48.858;10.128;2023-08-17T12:35:04;6.57;;;5.72;;
6378;SDS011;3222;48.858;10.128;2023-08-17T12:37:30;5.50;;;5.00;;
6378;SDS011;3222;48.858;10.128;2023-08-17T12:39:55;6.63;;;5.72;;
6378;SDS011;3222;48.858;10.128;2023-08-17T12:42:21;5.47;;;4.72;;
6378;SDS011;3222;48.858;10.128;2023-08-17T12:44:47;6.13;;;5.53;;
6378;SDS011;3222;48.858;10.128;2023-08-17T12:47:13;5.18;;;4.72;;
6378;SDS011;3222;48.858;10.128;2023-08-17T12:49:39;4.90;;;4.45;;
6378;SDS011;3222;48.858;10.128;2023-08-17T12:52:05;5.20;;;4.70;;
6378;SDS011;3222;48.858;10.128;2023-08-17T12:54:30;5.18;;;4.78;;
6378;SDS011;3222;48.858;10.128;2023-08-17T12:56:56;5.32;;;4.63;;
6378;SDS011;3222;48.858;10.128;2023-08-17T12:59:22;5.28;;;4.78;;
6378;SDS011;3222;48.858;10.128;2023-08-17T13:01:47;5.10;;;4.65;;
6378;SDS011;3222;48.858;10.128;2023-08-17T13:04:13;5.78;;;5.28;;
6378;SDS011;3222;48.858;10.128;2023-08-17T13:06:39;5.30;;;4.80;;
6378;SDS011;3222;48.858;10.128;2023-08-17T13:09:04;6.93;;;5.07;;
6378;SDS011;3222;48.858;10.128;2023-08-17T13:11:30;5.85;;;5.22;;
6378;SDS011;3222;48.858;10.128;2023-08-17T13:13:57;5.70;;;5.20;;
6378;SDS011;3222;48.858;10.128;2023-08-17T13:16:22;7.30;;;5.18;;
6378;SDS011;3222;48.858;10.128;2023-08-17T13:18:48;5.57;;;5.13;;
6378;SDS011;3222;48.858;10.128;2023-08-17T13:21:14;5.60;;;5.13;;
6378;SDS011;3222;48.858;10.128;2023-08-17T13:23:41;5.82;;;5.32;;
6378;SDS011;3222;48.858;10.128;2023-08-17T13:26:07;6.05;;;5.45;;
6378;SDS011;3222;48.858;10.128;2023-08-17T13:28:32;7.03;;;6.18;;
6378;SDS011;3222;48.858;10.128;2023-08-17T13:30:58;5.88;;;5.35;;
6378;SDS011;3222;48.858;10.128;2023-08-17T13:33:24;7.72;;;6.00;;
6378;SDS011;3222;48.858;10.128;2023-08-17T13:35:49;6.22;;;5.40;;
6378;SDS011;3222;48.858;10.128;2023-08-17T13:38:16;5.65;;;5.07;;
6378;SDS011;3222;48.858;10.128;2023-08-17T13:40:42;8.07;;;5.40;;
6378;SDS011;3222;48.858;10.128;2023-08-17T13:43:08;5.78;;;5.07;;
6378;SDS011;3222;48.858;10.128;2023-08-17T13:45:40;6.68;;;5.45;;
6378;SDS011;3222;48.858;10.128;2023-08-17T13:48:06;6.03;;;5.43;;
6378;SDS011;3222;48.858;10.128;2023-08-17T13:50:33;6.43;;;5.32;;
6378;SDS011;3222;48.858;10.128;2023-08-17T13:52:59;5.72;;;5.13;;
6378;SDS011;3222;48.858;10.128;2023-08-17T13:55:26;6.53;;;5.28;;
6378;SDS011;3222;48.858;10.128;2023-08-17T13:57:53;5.75;;;5.25;;
6378;SDS011;3222;48.858;10.128;2023-08-17T14:00:20;7.43;;;5.20;;
6378;SDS011;3222;48.858;10.128;2023-08-17T14:02:46;6.22;;;5.32;;
6378;SDS011;3222;48.858;10.128;2023-08-17T14:05:12;6.10;;;5.60;;
6378;SDS011;3222;48.858;10.128;2023-08-17T14:07:37;6.22;;;5.65;;
6378;SDS011;3222;48.858;10.128;2023-08-17T14:10:03;6.18;;;5.60;;
6378;SDS011;3222;48.858;10.128;2023-08-17T14:12:29;5.80;;;5.30;;
6378;SDS011;3222;48.858;10.128;2023-08-17T14:14:55;5.93;;;5.22;;
6378;SDS011;3222;48.858;10.128;2023-08-17T14:17:21;6.30;;;5.70;;
6378;SDS011;3222;48.858;10.128;2023-08-17T14:19:46;5.25;;;4.65;;
6378;SDS011;3222;48.858;10.128;2023-08-17T14:22:12;5.43;;;4.70;;
6378;SDS011;3222;48.858;10.128;2023-08-17T14:24:38;4.93;;;4.53;;
6378;SDS011;3222;48.858;10.128;2023-08-17T14:27:03;4.90;;;4.50;;
6378;SDS011;3222;48.858;10.128;2023-08-17T14:29:29;6.43;;;4.82;;
6378;SDS011;3222;48.858;10.128;2023-08-17T14:31:55;5.13;;;4.47;;
6378;SDS011;3222;48.858;10.128;2023-08-17T14:34:20;4.82;;;4.43;;
6378;SDS011;3222;48.858;10.128;2023-08-17T14:36:46;5.93;;;4.30;;
6378;SDS011;3222;48.858;10.128;2023-08-17T14:39:12;5.35;;;4.63;;
6378;SDS011;3222;48.858;10.128;2023-08-17T14:41:38;7.43;;;4.75;;
6378;SDS011;3222;48.858;10.128;2023-08-17T14:44:04;5.88;;;4.88;;
6378;SDS011;3222;48.858;10.128;2023-08-17T14:46:30;9.70;;;5.05;;
6378;SDS011;3222;48.858;10.128;2023-08-17T14:48:55;5.45;;;5.00;;
6378;SDS011;3222;48.858;10.128;2023-08-17T14:51:23;6.03;;;5.00;;
6378;SDS011;3222;48.858;10.128;2023-08-17T14:53:49;7.15;;;4.90;;
6378;SDS011;3222;48.858;10.128;2023-08-17T14:56:14;5.63;;;5.13;;
6378;SDS011;3222;48.858;10.128;2023-08-17T14:58:40;5.43;;;4.35;;
6378;SDS011;3222;48.858;10.128;2023-08-17T15:01:06;6.68;;;4.82;;
6378;SDS011;3222;48.858;10.128;2023-08-17T15:03:31;6.13;;;5.25;;
6378;SDS011;3222;48.858;10.128;2023-08-17T15:05:57;9.35;;;4.90;;
6378;SDS011;3222;48.858;10.128;2023-08-17T15:08:23;5.93;;;5.00;;
6378;SDS011;3222;48.858;10.128;2023-08-17T15:10:48;7.15;;;5.15;;
6378;SDS011;3222;48.858;10.128;2023-08-17T15:13:15;6.00;;;5.40;;